Station Historical Data
Daily Summary for October 6, 2017 Units:  English    Metric   Both
« Previous Day
Next Day »
Daily Weekly Monthly Yearly Custom
  High: Low: Average:
Temperature: 69.1 °F 58.6 °F 63.3 °F
Dew Point: 60.8 °F 54.3 °F 57.9 °F
Humidity: 91% 72% 83%
Wind Speed: 5.0mph 0.0mph 0.8mph
Wind Gust: 8.0mph - -
Wind- - SW
Pressure: 30.09 in 30.01 in -
Precipitation: 0.00 in    
Historical Graphs
 
 
Tabular Data for October 6, 2017
Time Temperature Dew Point Pressure Wind Wind Speed Wind Gust Humidity Rainfall Rate (Hourly)
00:04 60.6 °F 54.7 °F 30.07 in SW 1.0 mph 5.0 mph 81% 0.00 in
00:09 60.6 °F 54.7 °F 30.07 in SSW 1.0 mph 4.0 mph 81% 0.00 in
00:14 60.4 °F 54.9 °F 30.07 in Calm   4.0 mph 82% 0.00 in
00:19 60.3 °F 54.8 °F 30.07 in Calm   4.0 mph 82% 0.00 in
00:24 60.4 °F 54.9 °F 30.07 in Calm   4.0 mph 82% 0.00 in
00:29 60.5 °F 55.0 °F 30.07 in Calm     82% 0.00 in
00:34 60.5 °F 55.0 °F 30.07 in Calm     82% 0.00 in
00:39 60.4 °F 54.9 °F 30.07 in SW 1.0 mph 5.0 mph 82% 0.00 in
00:44 60.5 °F 55.0 °F 30.07 in SW 1.0 mph 5.0 mph 82% 0.00 in
00:49 60.4 °F 55.2 °F 30.07 in Calm   3.0 mph 83% 0.00 in
00:54 60.5 °F 55.3 °F 30.07 in WSW 3.0 mph 5.0 mph 83% 0.00 in
00:59 60.6 °F 55.4 °F 30.07 in WSW 1.0 mph 3.0 mph 83% 0.00 in
01:04 60.8 °F 55.6 °F 30.06 in Calm   4.0 mph 83% 0.00 in
01:09 61.0 °F 55.8 °F 30.06 in Calm   4.0 mph 83% 0.00 in
01:19 61.3 °F 56.1 °F 30.06 in Calm   3.0 mph 83% 0.00 in
01:24 61.4 °F 55.9 °F 30.06 in Calm   2.0 mph 82% 0.00 in
01:29 61.3 °F 55.8 °F 30.06 in Calm   3.0 mph 82% 0.00 in
01:34 61.4 °F 55.9 °F 30.06 in Calm     82% 0.00 in
01:39 61.3 °F 55.8 °F 30.06 in Calm   3.0 mph 82% 0.00 in
01:44 61.3 °F 55.8 °F 30.06 in Calm   3.0 mph 82% 0.00 in
01:49 61.3 °F 55.8 °F 30.06 in Calm   2.0 mph 82% 0.00 in
01:54 61.3 °F 55.8 °F 30.06 in Calm   2.0 mph 82% 0.00 in
01:59 61.3 °F 55.4 °F 30.06 in SW 1.0 mph 4.0 mph 81% 0.00 in
02:04 61.3 °F 55.4 °F 30.06 in Calm   5.0 mph 81% 0.00 in
02:09 61.3 °F 55.4 °F 30.06 in SW 1.0 mph 5.0 mph 81% 0.00 in
02:14 61.3 °F 55.1 °F 30.06 in SW 3.0 mph 6.0 mph 80% 0.00 in
02:19 61.3 °F 55.1 °F 30.06 in SW 1.0 mph 4.0 mph 80% 0.00 in
02:24 61.3 °F 54.7 °F 30.06 in SSW 3.0 mph 4.0 mph 79% 0.00 in
02:29 61.4 °F 54.8 °F 30.06 in Calm   6.0 mph 79% 0.00 in
02:34 61.3 °F 54.4 °F 30.06 in SW 3.0 mph 4.0 mph 78% 0.00 in
02:39 61.3 °F 54.7 °F 30.07 in Calm   4.0 mph 79% 0.00 in
02:44 61.3 °F 54.7 °F 30.07 in SW 1.0 mph 4.0 mph 79% 0.00 in
02:49 61.4 °F 54.5 °F 30.07 in SW 1.0 mph 3.0 mph 78% 0.00 in
02:54 61.5 °F 54.6 °F 30.07 in SW 1.0 mph 3.0 mph 78% 0.00 in
02:59 61.5 °F 54.6 °F 30.07 in SW 1.0 mph 3.0 mph 78% 0.00 in
03:14 61.3 °F 54.7 °F 30.07 in Calm   3.0 mph 79% 0.00 in
03:19 61.3 °F 54.7 °F 30.07 in Calm     79% 0.00 in
03:24 61.4 °F 54.8 °F 30.07 in Calm     79% 0.00 in
03:29 61.4 °F 54.8 °F 30.07 in Calm     79% 0.00 in
03:39 61.4 °F 54.8 °F 30.06 in Calm     79% 0.00 in
03:49 61.0 °F 54.8 °F 30.06 in Calm   3.0 mph 80% 0.00 in
03:54 61.0 °F 54.8 °F 30.06 in Calm     80% 0.00 in
04:04 61.2 °F 54.6 °F 30.06 in Calm     79% 0.00 in
04:09 61.2 °F 54.6 °F 30.06 in Calm     79% 0.00 in
04:14 60.9 °F 54.3 °F 30.06 in Calm     79% 0.00 in
04:19 60.8 °F 54.6 °F 30.06 in Calm     80% 0.00 in
04:24 60.8 °F 54.6 °F 30.06 in Calm   2.0 mph 80% 0.00 in
04:29 60.9 °F 54.7 °F 30.06 in Calm     80% 0.00 in
04:34 61.1 °F 54.9 °F 30.06 in Calm     80% 0.00 in
04:39 61.1 °F 54.9 °F 30.06 in Calm     80% 0.00 in
04:44 61.2 °F 55.0 °F 30.06 in Calm     80% 0.00 in
04:49 61.3 °F 55.1 °F 30.06 in Calm     80% 0.00 in
04:54 61.2 °F 55.3 °F 30.06 in Calm     81% 0.00 in
04:59 61.0 °F 55.1 °F 30.06 in Calm     81% 0.00 in
05:04 60.9 °F 55.0 °F 30.06 in Calm     81% 0.00 in
05:09 60.7 °F 54.8 °F 30.06 in Calm     81% 0.00 in
05:14 60.4 °F 54.9 °F 30.06 in Calm     82% 0.00 in
05:19 60.4 °F 54.9 °F 30.06 in Calm     82% 0.00 in
05:24 60.4 °F 54.9 °F 30.06 in Calm     82% 0.00 in
05:29 60.5 °F 55.0 °F 30.06 in Calm     82% 0.00 in
05:34 60.6 °F 55.4 °F 30.05 in Calm     83% 0.00 in
05:39 60.7 °F 55.5 °F 30.06 in Calm     83% 0.00 in
05:44 60.7 °F 55.5 °F 30.06 in Calm     83% 0.00 in
05:49 60.6 °F 55.4 °F 30.06 in Calm     83% 0.00 in
05:54 60.6 °F 55.7 °F 30.06 in Calm     84% 0.00 in
05:59 60.5 °F 55.6 °F 30.06 in Calm     84% 0.00 in
06:04 60.3 °F 55.8 °F 30.07 in Calm     85% 0.00 in
06:09 60.2 °F 56.0 °F 30.07 in Calm     86% 0.01 in
06:14 60.1 °F 55.9 °F 30.07 in Calm     86% 0.01 in
06:19 60.0 °F 56.1 °F 30.07 in Calm     87% 0.02 in
06:24 59.9 °F 56.0 °F 30.08 in Calm     87% 0.02 in
06:29 59.9 °F 56.3 °F 30.08 in Calm     88% 0.03 in
06:34 59.9 °F 56.3 °F 30.08 in Calm     88% 0.04 in
06:39 59.9 °F 56.6 °F 30.08 in Calm     89% 0.05 in
06:44 59.9 °F 56.6 °F 30.08 in Calm     89% 0.06 in
06:49 59.8 °F 56.6 °F 30.08 in Calm     89% 0.06 in
06:54 59.6 °F 56.4 °F 30.08 in Calm     89% 0.07 in
06:59 59.3 °F 56.1 °F 30.08 in Calm     89% 0.08 in
07:04 59.0 °F 55.8 °F 30.08 in Calm     89% 0.08 in
07:09 58.9 °F 55.7 °F 30.08 in Calm     89% 0.07 in
07:14 58.8 °F 55.6 °F 30.08 in Calm     89% 0.07 in
07:19 58.7 °F 55.5 °F 30.08 in Calm     89% 0.06 in
07:24 58.7 °F 55.5 °F 30.08 in Calm     89% 0.06 in
07:29 58.6 °F 55.4 °F 30.08 in Calm     89% 0.06 in
07:34 58.7 °F 55.8 °F 30.08 in Calm     90% 0.05 in
07:39 58.8 °F 55.9 °F 30.08 in Calm     90% 0.05 in
07:44 58.7 °F 55.8 °F 30.08 in Calm     90% 0.04 in
07:49 58.7 °F 55.8 °F 30.08 in Calm     90% 0.04 in
07:54 58.8 °F 55.9 °F 30.08 in Calm     90% 0.03 in
07:59 58.8 °F 55.9 °F 30.08 in Calm     90% 0.03 in
08:04 58.7 °F 55.8 °F 30.08 in Calm     90% 0.03 in
08:09 58.7 °F 55.8 °F 30.08 in Calm     90% 0.03 in
08:14 58.7 °F 55.8 °F 30.08 in Calm     90% 0.03 in
08:19 58.7 °F 55.8 °F 30.08 in Calm     90% 0.03 in
08:24 58.8 °F 55.9 °F 30.08 in Calm     90% 0.03 in
08:29 58.9 °F 56.0 °F 30.08 in Calm     90% 0.02 in
08:34 59.0 °F 56.1 °F 30.08 in Calm     90% 0.02 in
08:39 59.1 °F 56.2 °F 30.08 in Calm     90% 0.01 in
08:44 59.2 °F 56.3 °F 30.08 in Calm     90% 0.01 in
08:49 59.3 °F 56.4 °F 30.08 in Calm     90% 0.01 in
08:54 59.4 °F 56.5 °F 30.08 in Calm     90% 0.01 in
08:59 59.3 °F 56.4 °F 30.08 in Calm     90% 0.00 in
09:04 59.3 °F 56.4 °F 30.08 in Calm     90% 0.00 in
09:09 59.3 °F 56.4 °F 30.09 in Calm     90% 0.00 in
09:14 59.3 °F 56.4 °F 30.08 in Calm     90% 0.00 in
09:19 59.4 °F 56.5 °F 30.09 in Calm   2.0 mph 90% 0.00 in
09:24 59.6 °F 56.7 °F 30.09 in Calm   2.0 mph 90% 0.00 in
09:29 59.6 °F 56.7 °F 30.09 in Calm   4.0 mph 90% 0.00 in
09:34 59.7 °F 56.8 °F 30.09 in Calm   4.0 mph 90% 0.00 in
09:39 59.8 °F 56.9 °F 30.09 in Calm   2.0 mph 90% 0.00 in
09:44 60.0 °F 57.1 °F 30.09 in Calm   2.0 mph 90% 0.00 in
09:49 60.2 °F 57.3 °F 30.09 in Calm     90% 0.00 in
09:54 60.6 °F 57.7 °F 30.09 in Calm     90% 0.00 in
09:59 61.0 °F 58.0 °F 30.08 in SW 4.0 mph 5.0 mph 90% 0.00 in
10:04 61.6 °F 58.3 °F 30.08 in SW 1.0 mph 4.0 mph 89% 0.00 in
10:09 61.9 °F 58.6 °F 30.09 in Calm   4.0 mph 89% 0.00 in
10:14 61.9 °F 58.3 °F 30.09 in Calm   5.0 mph 88% 0.00 in
10:19 62.2 °F 58.6 °F 30.09 in SW 1.0 mph 5.0 mph 88% 0.00 in
10:24 62.2 °F 58.6 °F 30.08 in SSW 1.0 mph 4.0 mph 88% 0.00 in
10:29 62.2 °F 58.6 °F 30.09 in SW 1.0 mph 4.0 mph 88% 0.00 in
10:34 62.4 °F 58.8 °F 30.08 in SSW 1.0 mph 4.0 mph 88% 0.00 in
10:39 62.5 °F 58.9 °F 30.08 in SSW 1.0 mph 5.0 mph 88% 0.00 in
10:44 62.7 °F 59.1 °F 30.08 in SW 1.0 mph 4.0 mph 88% 0.00 in
10:49 62.9 °F 59.0 °F 30.08 in Calm   3.0 mph 87% 0.00 in
10:54 62.9 °F 59.0 °F 30.09 in Calm   4.0 mph 87% 0.00 in
10:59 63.0 °F 59.1 °F 30.09 in SW 3.0 mph 4.0 mph 87% 0.00 in
11:04 63.1 °F 58.8 °F 30.09 in SSW 4.0 mph 5.0 mph 86% 0.00 in
11:09 63.2 °F 59.3 °F 30.09 in Calm   4.0 mph 87% 0.00 in
11:14 63.7 °F 59.8 °F 30.09 in Calm   3.0 mph 87% 0.00 in
11:19 63.8 °F 59.5 °F 30.09 in SSW 1.0 mph 5.0 mph 86% 0.00 in
11:24 63.7 °F 59.4 °F 30.08 in SSW 1.0 mph 5.0 mph 86% 0.00 in
11:29 64.0 °F 59.7 °F 30.08 in SSW 1.0 mph 4.0 mph 86% 0.00 in
11:34 63.9 °F 59.3 °F 30.08 in SSW 1.0 mph 4.0 mph 85% 0.00 in
11:39 64.2 °F 59.6 °F 30.07 in SSW 2.0 mph 5.0 mph 85% 0.00 in
11:44 64.8 °F 60.2 °F 30.08 in SSW 1.0 mph 6.0 mph 85% 0.00 in
11:49 65.1 °F 59.8 °F 30.08 in SSW 2.0 mph 6.0 mph 83% 0.00 in
11:54 64.8 °F 59.5 °F 30.08 in SW 1.0 mph 5.0 mph 83% 0.00 in
11:59 65.1 °F 59.8 °F 30.08 in Calm   4.0 mph 83% 0.00 in
12:04 65.4 °F 59.8 °F 30.07 in South 4.0 mph 5.0 mph 82% 0.00 in
12:09 65.8 °F 59.8 °F 30.07 in WSW 5.0 mph 5.0 mph 81% 0.00 in
12:14 66.1 °F 59.7 °F 30.07 in Calm   6.0 mph 80% 0.00 in
12:19 66.5 °F 60.1 °F 30.07 in WSW 4.0 mph 5.0 mph 80% 0.00 in
12:24 66.1 °F 59.4 °F 30.07 in SW 4.0 mph 5.0 mph 79% 0.00 in
12:29 66.3 °F 59.2 °F 30.07 in SW 3.0 mph 6.0 mph 78% 0.00 in
12:34 66.4 °F 59.0 °F 30.07 in SW 2.0 mph 5.0 mph 77% 0.00 in
12:39 66.1 °F 59.4 °F 30.07 in SW 1.0 mph 7.0 mph 79% 0.00 in
12:44 65.9 °F 58.8 °F 30.07 in West 1.0 mph 5.0 mph 78% 0.00 in
12:49 65.9 °F 58.8 °F 30.07 in WSW 2.0 mph 5.0 mph 78% 0.00 in
12:54 65.9 °F 59.2 °F 30.07 in WSW 2.0 mph 4.0 mph 79% 0.00 in
12:59 66.0 °F 58.9 °F 30.07 in SW 1.0 mph 4.0 mph 78% 0.00 in
13:04 66.2 °F 58.8 °F 30.07 in SW 2.0 mph 5.0 mph 77% 0.00 in
13:14 66.4 °F 59.0 °F 30.06 in WSW 3.0 mph 6.0 mph 77% 0.00 in
13:19 66.6 °F 59.2 °F 30.06 in Calm   7.0 mph 77% 0.00 in
13:24 67.3 °F 59.5 °F 30.06 in WSW 3.0 mph 7.0 mph 76% 0.00 in
13:29 67.8 °F 60.0 °F 30.06 in WSW 2.0 mph 7.0 mph 76% 0.00 in
13:34 67.4 °F 58.8 °F 30.06 in West 2.0 mph 7.0 mph 74% 0.00 in
13:39 67.2 °F 59.0 °F 30.06 in West 2.0 mph 6.0 mph 75% 0.00 in
13:44 67.1 °F 58.5 °F 30.06 in WSW 3.0 mph 6.0 mph 74% 0.00 in
13:49 67.3 °F 59.1 °F 30.05 in WSW 3.0 mph 8.0 mph 75% 0.00 in
13:54 67.4 °F 59.2 °F 30.05 in WSW 3.0 mph 8.0 mph 75% 0.00 in
13:59 68.1 °F 59.9 °F 30.05 in West 2.0 mph 5.0 mph 75% 0.00 in
14:04 68.3 °F 59.3 °F 30.05 in West 2.0 mph 5.0 mph 73% 0.00 in
14:09 68.5 °F 59.1 °F 30.05 in SW 5.0 mph 7.0 mph 72% 0.00 in
14:14 68.2 °F 58.8 °F 30.05 in WSW 2.0 mph 7.0 mph 72% 0.00 in
14:24 67.7 °F 59.1 °F 30.05 in WSW 3.0 mph 8.0 mph 74% 0.00 in
14:29 67.9 °F 59.3 °F 30.05 in WSW 3.0 mph 8.0 mph 74% 0.00 in
14:34 67.9 °F 59.3 °F 30.05 in West 2.0 mph 5.0 mph 74% 0.00 in
14:39 67.6 °F 58.6 °F 30.05 in West 3.0 mph 6.0 mph 73% 0.00 in
14:44 67.5 °F 59.3 °F 30.05 in WSW 3.0 mph 6.0 mph 75% 0.00 in
14:49 67.4 °F 59.2 °F 30.05 in West 3.0 mph 6.0 mph 75% 0.00 in
14:54 67.2 °F 59.0 °F 30.05 in WSW 4.0 mph 8.0 mph 75% 0.00 in
14:59 67.3 °F 59.5 °F 30.05 in West 2.0 mph 5.0 mph 76% 0.00 in
15:04 67.1 °F 58.9 °F 30.04 in WSW 3.0 mph 7.0 mph 75% 0.00 in
15:09 66.8 °F 58.2 °F 30.04 in SW 1.0 mph 4.0 mph 74% 0.00 in
15:14 66.8 °F 59.0 °F 30.03 in SSW 2.0 mph 4.0 mph 76% 0.00 in
15:19 67.0 °F 59.2 °F 30.04 in SSW 1.0 mph 4.0 mph 76% 0.00 in
15:24 67.2 °F 59.4 °F 30.03 in SW 1.0 mph 4.0 mph 76% 0.00 in
15:29 67.3 °F 59.1 °F 30.03 in WSW 2.0 mph 5.0 mph 75% 0.00 in
15:34 67.6 °F 59.8 °F 30.03 in West 2.0 mph 6.0 mph 76% 0.00 in
15:39 67.6 °F 59.4 °F 30.03 in WSW 2.0 mph 5.0 mph 75% 0.00 in
15:49 69.1 °F 60.8 °F 30.02 in SW 2.0 mph 5.0 mph 75% 0.00 in
15:59 68.4 °F 59.8 °F 30.02 in SSW 2.0 mph 5.0 mph 74% 0.00 in
16:04 68.4 °F 60.2 °F 30.02 in SSW 2.0 mph 5.0 mph 75% 0.00 in
16:09 68.1 °F 59.5 °F 30.02 in WNW 3.0 mph 6.0 mph 74% 0.00 in
16:14 67.7 °F 59.1 °F 30.02 in WSW 1.0 mph 6.0 mph 74% 0.00 in
16:19 67.7 °F 59.5 °F 30.02 in WSW 3.0 mph 6.0 mph 75% 0.00 in
16:24 67.7 °F 59.5 °F 30.02 in SW 2.0 mph 5.0 mph 75% 0.00 in
16:29 67.7 °F 59.1 °F 30.02 in WSW 1.0 mph 4.0 mph 74% 0.00 in
16:34 67.6 °F 59.0 °F 30.02 in SW 3.0 mph 4.0 mph 74% 0.00 in
16:39 67.5 °F 59.3 °F 30.02 in SW 3.0 mph 3.0 mph 75% 0.00 in
16:44 67.5 °F 59.3 °F 30.02 in WSW 1.0 mph 5.0 mph 75% 0.00 in
16:49 67.4 °F 59.2 °F 30.02 in WSW 1.0 mph 5.0 mph 75% 0.00 in
16:54 67.4 °F 59.2 °F 30.02 in WSW 1.0 mph 5.0 mph 75% 0.00 in
16:59 67.4 °F 59.6 °F 30.02 in WSW 1.0 mph 4.0 mph 76% 0.00 in
17:04 67.4 °F 59.6 °F 30.02 in WSW 1.0 mph 4.0 mph 76% 0.00 in
17:09 67.3 °F 59.1 °F 30.02 in WSW 2.0 mph 4.0 mph 75% 0.00 in
17:14 67.2 °F 59.4 °F 30.02 in SW 1.0 mph 4.0 mph 76% 0.00 in
17:19 67.2 °F 59.4 °F 30.02 in Calm   1.0 mph 76% 0.00 in
17:24 67.1 °F 58.9 °F 30.02 in Calm   3.0 mph 75% 0.00 in
17:29 67.0 °F 59.2 °F 30.02 in Calm   2.0 mph 76% 0.00 in
17:34 67.0 °F 59.2 °F 30.02 in Calm     76% 0.00 in
17:39 67.0 °F 58.8 °F 30.02 in Calm     75% 0.00 in
17:44 67.0 °F 59.2 °F 30.02 in Calm     76% 0.00 in
17:49 67.0 °F 59.2 °F 30.01 in Calm     76% 0.00 in
17:54 66.9 °F 59.1 °F 30.01 in Calm     76% 0.00 in
17:59 66.9 °F 59.1 °F 30.01 in Calm     76% 0.00 in
18:04 66.8 °F 59.4 °F 30.01 in Calm     77% 0.00 in
18:09 66.7 °F 58.9 °F 30.01 in Calm     76% 0.00 in
18:14 66.7 °F 59.3 °F 30.01 in Calm     77% 0.00 in
18:19 66.6 °F 59.2 °F 30.02 in Calm     77% 0.00 in
18:24 66.5 °F 59.1 °F 30.02 in Calm     77% 0.00 in
18:29 66.5 °F 59.1 °F 30.02 in Calm     77% 0.00 in
18:34 66.5 °F 59.4 °F 30.02 in Calm     78% 0.00 in
18:39 66.3 °F 58.9 °F 30.02 in Calm     77% 0.00 in
18:44 66.4 °F 59.3 °F 30.02 in Calm     78% 0.00 in
18:54 66.3 °F 59.2 °F 30.02 in Calm     78% 0.00 in
18:59 66.2 °F 59.1 °F 30.02 in Calm     78% 0.00 in
19:04 66.1 °F 59.0 °F 30.02 in Calm     78% 0.00 in
19:09 66.0 °F 59.3 °F 30.02 in Calm     79% 0.00 in
19:14 65.9 °F 59.2 °F 30.02 in Calm     79% 0.00 in
19:19 65.8 °F 59.5 °F 30.02 in Calm     80% 0.00 in
19:24 65.7 °F 59.4 °F 30.02 in SSW 2.0 mph 5.0 mph 80% 0.00 in
19:29 65.4 °F 59.4 °F 30.02 in South 2.0 mph 6.0 mph 81% 0.00 in
19:34 65.2 °F 59.6 °F 30.01 in SSW 2.0 mph 6.0 mph 82% 0.00 in
19:39 65.0 °F 59.4 °F 30.02 in SSW 2.0 mph 6.0 mph 82% 0.00 in
19:44 64.9 °F 59.6 °F 30.01 in SSW 1.0 mph 5.0 mph 83% 0.00 in
19:49 64.9 °F 59.6 °F 30.01 in SSW 2.0 mph 4.0 mph 83% 0.00 in
19:54 64.8 °F 59.5 °F 30.01 in SSW 1.0 mph 6.0 mph 83% 0.00 in
19:59 64.7 °F 59.4 °F 30.01 in SSW 2.0 mph 6.0 mph 83% 0.00 in
20:04 64.6 °F 59.7 °F 30.01 in SSW 2.0 mph 6.0 mph 84% 0.00 in
20:09 64.6 °F 59.7 °F 30.01 in SSE 3.0 mph 6.0 mph 84% 0.00 in
20:14 64.5 °F 59.6 °F 30.01 in SSW 5.0 mph 6.0 mph 84% 0.00 in
20:19 64.4 °F 59.8 °F 30.01 in Calm   5.0 mph 85% 0.00 in
20:24 64.3 °F 59.7 °F 30.01 in Calm   4.0 mph 85% 0.00 in
20:29 64.3 °F 59.7 °F 30.01 in SSE 2.0 mph 5.0 mph 85% 0.00 in
20:39 64.2 °F 59.9 °F 30.02 in SSE 3.0 mph 6.0 mph 86% 0.00 in
20:44 64.1 °F 59.8 °F 30.01 in SSE 4.0 mph 5.0 mph 86% 0.00 in
20:49 64.0 °F 60.1 °F 30.02 in Calm   6.0 mph 87% 0.00 in
20:54 64.0 °F 60.1 °F 30.02 in South 3.0 mph 4.0 mph 87% 0.00 in
20:59 63.9 °F 60.0 °F 30.02 in South 1.0 mph 4.0 mph 87% 0.00 in
21:04 63.9 °F 60.0 °F 30.02 in Calm   4.0 mph 87% 0.00 in
21:09 63.8 °F 60.2 °F 30.02 in SSE 2.0 mph 5.0 mph 88% 0.00 in
21:14 63.7 °F 60.1 °F 30.02 in Calm   4.0 mph 88% 0.00 in
21:24 63.5 °F 60.2 °F 30.02 in Calm     89% 0.00 in
21:29 63.4 °F 60.1 °F 30.02 in Calm     89% 0.00 in
21:34 63.2 °F 59.9 °F 30.02 in Calm     89% 0.00 in
21:39 63.1 °F 60.1 °F 30.02 in Calm     90% 0.00 in
21:44 63.1 °F 60.1 °F 30.02 in Calm     90% 0.00 in
21:49 63.1 °F 60.1 °F 30.02 in Calm     90% 0.00 in
21:54 63.1 °F 60.1 °F 30.02 in Calm     90% 0.00 in
22:04 63.1 °F 60.1 °F 30.02 in Calm     90% 0.00 in
22:09 63.1 °F 60.1 °F 30.02 in Calm     90% 0.00 in
22:14 63.0 °F 60.0 °F 30.01 in Calm     90% 0.00 in
22:19 63.0 °F 60.0 °F 30.01 in Calm     90% 0.00 in
22:24 63.0 °F 60.0 °F 30.01 in Calm     90% 0.00 in
22:29 63.0 °F 60.0 °F 30.01 in Calm     90% 0.00 in
22:34 62.9 °F 59.9 °F 30.01 in Calm     90% 0.00 in
22:39 63.0 °F 60.0 °F 30.01 in Calm     90% 0.00 in
22:44 63.0 °F 60.0 °F 30.01 in Calm     90% 0.00 in
22:49 63.1 °F 60.1 °F 30.02 in Calm     90% 0.00 in
22:54 63.1 °F 60.1 °F 30.02 in Calm     90% 0.00 in
22:59 63.1 °F 60.1 °F 30.02 in Calm     90% 0.00 in
23:04 63.2 °F 60.5 °F 30.02 in Calm     91% 0.01 in
23:09 63.2 °F 60.5 °F 30.02 in Calm     91% 0.01 in
23:14 63.2 °F 60.5 °F 30.02 in Calm     91% 0.01 in
23:19 63.3 °F 60.6 °F 30.02 in Calm     91% 0.01 in
23:24 63.2 °F 60.5 °F 30.02 in Calm     91% 0.01 in
23:29 63.3 °F 60.6 °F 30.01 in Calm     91% 0.01 in
23:34 63.4 °F 60.7 °F 30.01 in Calm     91% 0.01 in
23:39 63.3 °F 60.3 °F 30.01 in Calm     90% 0.01 in
23:44 63.3 °F 60.6 °F 30.01 in Calm     91% 0.01 in
23:49 63.4 °F 60.7 °F 30.01 in Calm     91% 0.01 in
23:54 63.4 °F 60.7 °F 30.01 in Calm     91% 0.01 in
23:59 63.5 °F 60.8 °F 30.01 in Calm     91% 0.01 in
Buffalo, New York, USA
Compliments of Weather Underground - 2.25 mb